Time;durP1;ratioP1;P1;durP2;ratioP2;P2;SDS_P1;SDS_P2;PMS_P1;PMS_P2;Temp;Humidity;BMP_temperature;BMP_pressure;BME280_temperature;BME280_humidity;BME280_pressure;Samples;Min_cycle;Max_cycle;Signal;HPM_P1;HPM_P2
2021/11/24 00:01:17;;;;;;;1.42;1.25;;;12.80;64.80;;;;;;5062838;28;20025;-72
2021/11/24 00:03:43;;;;;;;1.95;1.75;;;12.70;64.80;;;;;;5063934;28;20021;-72
2021/11/24 00:06:09;;;;;;;1.60;1.50;;;12.70;64.80;;;;;;5062686;28;20255;-71
2021/11/24 00:08:34;;;;;;;1.70;1.45;;;12.70;64.80;;;;;;5063862;28;20024;-72
2021/11/24 00:11:00;;;;;;;1.55;1.42;;;12.70;64.80;;;;;;5063725;28;20056;-72
2021/11/24 00:13:26;;;;;;;1.63;1.50;;;12.70;64.80;;;;;;5063693;28;20017;-71
2021/11/24 00:15:52;;;;;;;1.70;1.33;;;12.70;64.80;;;;;;5063702;28;20017;-72
2021/11/24 00:18:18;;;;;;;2.17;1.80;;;12.70;64.80;;;;;;5063693;28;20021;-72
2021/11/24 00:20:43;;;;;;;2.25;1.58;;;12.70;64.80;;;;;;5063624;28;20027;-72
2021/11/24 00:23:09;;;;;;;1.63;1.45;;;12.70;64.80;;;;;;5063567;28;20133;-72
2021/11/24 00:25:36;;;;;;;1.30;1.20;;;12.70;64.80;;;;;;5062334;28;20036;-72
2021/11/24 00:28:02;;;;;;;2.05;1.60;;;12.70;64.90;;;;;;5063481;28;20020;-72
2021/11/24 00:30:27;;;;;;;1.88;1.33;;;12.70;64.80;;;;;;5063491;28;20129;-72
2021/11/24 00:32:55;;;;;;;1.40;1.30;;;12.70;64.90;;;;;;5063305;28;20016;-72
2021/11/24 00:35:21;;;;;;;2.05;1.60;;;12.70;64.90;;;;;;5063359;28;20228;-71
2021/11/24 00:37:46;;;;;;;2.45;1.40;;;12.60;64.80;;;;;;5063324;28;20009;-71
2021/11/24 00:40:12;;;;;;;1.88;1.60;;;12.60;64.90;;;;;;5063245;28;20088;-71
2021/11/24 00:42:38;;;;;;;1.70;1.33;;;12.70;64.90;;;;;;5063199;28;20021;-72
2021/11/24 00:45:05;;;;;;;1.65;1.55;;;12.70;64.90;;;;;;5063175;28;20063;-71
2021/11/24 00:47:31;;;;;;;1.52;1.30;;;12.70;64.90;;;;;;5061897;28;20020;-71
2021/11/24 00:49:57;;;;;;;1.90;1.50;;;12.70;64.90;;;;;;5063104;28;20024;-71
2021/11/24 00:52:23;;;;;;;1.70;1.42;;;12.60;64.90;;;;;;5062986;28;20029;-71
2021/11/24 00:54:49;;;;;;;1.60;1.50;;;12.60;64.90;;;;;;5062990;28;20016;-70
2021/11/24 00:57:15;;;;;;;1.92;1.55;;;12.60;64.90;;;;;;5061727;28;20084;-71
2021/11/24 00:59:41;;;;;;;2.85;1.88;;;12.60;64.90;;;;;;5062899;28;20312;-70
2021/11/24 01:02:07;;;;;;;2.08;1.38;;;12.60;65.00;;;;;;5062875;28;20017;-71
2021/11/24 01:04:32;;;;;;;2.25;1.40;;;12.60;64.90;;;;;;5062811;28;20506;-71
2021/11/24 01:06:58;;;;;;;2.25;1.50;;;12.60;65.00;;;;;;5062772;28;20036;-71
2021/11/24 01:09:24;;;;;;;1.55;1.30;;;12.60;65.00;;;;;;5062151;28;20020;-72
2021/11/24 01:11:50;;;;;;;2.40;1.30;;;12.60;64.90;;;;;;5062418;28;20036;-72
2021/11/24 01:14:16;;;;;;;2.00;1.33;;;12.60;64.90;;;;;;5061411;28;20096;-72
2021/11/24 01:16:44;;;;;;;1.63;1.30;;;12.60;64.90;;;;;;5062532;28;20073;-72
2021/11/24 01:19:10;;;;;;;1.30;1.20;;;12.60;65.00;;;;;;5062585;28;20013;-71
2021/11/24 01:21:36;;;;;;;3.58;1.60;;;12.60;65.00;;;;;;5062515;28;20410;-71
2021/11/24 01:24:02;;;;;;;1.77;1.63;;;12.60;65.00;;;;;;5062423;28;20098;-71
2021/11/24 01:26:28;;;;;;;1.42;1.30;;;12.60;65.00;;;;;;5062459;28;20028;-71
2021/11/24 01:28:53;;;;;;;2.03;1.58;;;12.60;65.00;;;;;;5062326;28;20017;-71
2021/11/24 01:31:19;;;;;;;1.50;1.40;;;12.60;65.10;;;;;;5062341;28;20021;-71
2021/11/24 01:33:46;;;;;;;1.63;1.40;;;12.60;65.10;;;;;;5062218;28;20024;-70
2021/11/24 01:36:11;;;;;;;1.80;1.40;;;12.60;65.10;;;;;;5062228;28;20348;-71
2021/11/24 01:38:37;;;;;;;1.23;1.15;;;12.60;65.00;;;;;;5062222;28;20025;-71
2021/11/24 01:41:03;;;;;;;2.30;1.73;;;12.50;65.00;;;;;;5062168;28;20076;-71
2021/11/24 01:43:29;;;;;;;2.03;1.40;;;12.50;65.00;;;;;;5062154;28;20074;-71
2021/11/24 01:45:55;;;;;;;1.52;1.42;;;12.50;65.00;;;;;;5060880;28;20362;-71
2021/11/24 01:48:24;;;;;;;2.22;1.50;;;12.50;65.10;;;;;;5062020;28;20088;-71
2021/11/24 01:50:50;;;;;;;2.17;1.40;;;12.50;65.10;;;;;;5062028;28;20020;-71
2021/11/24 01:53:15;;;;;;;1.63;1.30;;;12.50;65.10;;;;;;5061968;28;20096;-71
2021/11/24 01:55:41;;;;;;;1.85;1.40;;;12.50;65.00;;;;;;5061953;28;20449;-71
2021/11/24 01:58:07;;;;;;;1.58;1.48;;;12.50;65.10;;;;;;5062018;28;20527;-71
2021/11/24 02:00:34;;;;;;;1.92;1.50;;;12.50;65.10;;;;;;5061851;28;20209;-71
2021/11/24 02:03:02;;;;;;;2.38;1.55;;;12.50;65.10;;;;;;5061887;28;20075;-71
2021/11/24 02:05:28;;;;;;;2.13;1.70;;;12.50;65.10;;;;;;5061887;28;20344;-70
2021/11/24 02:07:54;;;;;;;1.85;1.52;;;12.50;65.10;;;;;;5060634;28;20216;-71
2021/11/24 02:10:22;;;;;;;1.58;1.38;;;12.50;65.10;;;;;;5061791;28;20076;-71
2021/11/24 02:12:48;;;;;;;2.63;1.70;;;12.50;65.10;;;;;;5060565;28;20041;-71
2021/11/24 02:15:14;;;;;;;1.50;1.40;;;12.50;65.10;;;;;;5061720;28;20013;-70
2021/11/24 02:17:40;;;;;;;1.38;1.23;;;12.50;65.20;;;;;;5061769;28;20029;-71
2021/11/24 02:20:11;;;;;;;1.50;1.27;;;12.50;65.20;;;;;;5061737;28;20224;-72
2021/11/24 02:22:37;;;;;;;1.73;1.60;;;12.50;65.10;;;;;;5065093;28;20021;-70
2021/11/24 02:25:03;;;;;;;1.98;1.60;;;12.50;65.10;;;;;;5065756;28;20340;-71
2021/11/24 02:27:29;;;;;;;2.05;1.17;;;12.50;65.10;;;;;;5065772;28;20020;-71
2021/11/24 02:29:55;;;;;;;2.90;1.77;;;12.50;65.10;;;;;;5065701;28;20021;-70
2021/11/24 02:32:20;;;;;;;2.25;1.83;;;12.50;65.10;;;;;;5065630;28;20070;-70
2021/11/24 02:34:46;;;;;;;1.73;1.40;;;12.50;65.10;;;;;;5065704;28;20020;-71
2021/11/24 02:37:12;;;;;;;2.10;1.77;;;12.40;65.10;;;;;;5065583;28;20024;-70
2021/11/24 02:39:38;;;;;;;1.45;1.25;;;12.40;65.10;;;;;;5064384;28;20066;-71
2021/11/24 02:42:04;;;;;;;2.08;1.40;;;12.40;65.10;;;;;;5065486;28;20017;-70
2021/11/24 02:44:37;;;;;;;2.28;1.77;;;12.40;65.10;;;;;;5065500;28;20017;-70
2021/11/24 02:47:12;;;;;;;1.80;1.48;;;12.40;65.10;;;;;;5065478;28;20039;-70
2021/11/24 02:49:42;;;;;;;2.50;1.55;;;12.40;65.10;;;;;;5065407;28;20247;-71
2021/11/24 02:52:09;;;;;;;2.45;1.65;;;12.40;65.20;;;;;;5065260;28;20021;-71
2021/11/24 02:54:35;;;;;;;1.45;1.35;;;12.40;65.30;;;;;;5065329;28;20072;-71
2021/11/24 02:57:02;;;;;;;2.65;1.92;;;12.40;65.20;;;;;;5065247;28;20029;-72
2021/11/24 02:59:28;;;;;;;1.42;1.30;;;12.40;65.10;;;;;;5065276;28;20100;-70
2021/11/24 03:01:54;;;;;;;1.48;1.38;;;12.40;65.10;;;;;;5065148;28;20013;-71
2021/11/24 03:04:25;;;;;;;1.60;1.17;;;12.40;65.20;;;;;;5065110;28;20071;-70
2021/11/24 03:06:50;;;;;;;1.65;1.45;;;12.40;65.20;;;;;;5065108;28;20029;-72
2021/11/24 03:09:16;;;;;;;1.33;1.23;;;12.40;65.10;;;;;;5065036;28;20021;-71
2021/11/24 03:11:42;;;;;;;1.40;1.30;;;12.40;65.20;;;;;;5064772;28;20471;-70
2021/11/24 03:14:07;;;;;;;2.25;1.20;;;12.40;65.20;;;;;;5064852;28;20037;-71
2021/11/24 03:16:33;;;;;;;1.70;1.50;;;12.40;65.20;;;;;;5064872;28;20082;-71
2021/11/24 03:18:59;;;;;;;2.17;1.60;;;12.30;65.20;;;;;;5063554;28;20059;-71
2021/11/24 03:21:25;;;;;;;1.67;1.58;;;12.30;65.30;;;;;;5063538;28;20013;-71
2021/11/24 03:23:50;;;;;;;1.38;1.27;;;12.40;65.30;;;;;;5063478;28;20036;-71
2021/11/24 03:26:16;;;;;;;1.30;1.20;;;12.30;65.30;;;;;;5063519;28;20044;-71
2021/11/24 03:28:42;;;;;;;1.40;1.30;;;12.30;65.20;;;;;;5064617;28;20205;-71
2021/11/24 03:31:09;;;;;;;2.10;1.50;;;12.30;65.20;;;;;;5063327;28;20033;-71
2021/11/24 03:33:34;;;;;;;2.15;1.40;;;12.30;65.20;;;;;;5063868;28;20249;-71
2021/11/24 03:36:00;;;;;;;1.52;1.40;;;12.30;65.10;;;;;;5063339;28;20021;-71
2021/11/24 03:38:26;;;;;;;1.50;1.40;;;12.30;65.20;;;;;;5064484;28;20021;-71
2021/11/24 03:40:52;;;;;;;2.05;1.50;;;12.30;65.20;;;;;;5064440;28;20020;-72
2021/11/24 03:43:18;;;;;;;2.35;1.70;;;12.30;65.30;;;;;;5064348;28;20036;-71
2021/11/24 03:45:44;;;;;;;1.92;1.48;;;12.30;65.30;;;;;;5064327;28;20080;-71
2021/11/24 03:48:10;;;;;;;2.17;1.60;;;12.30;65.30;;;;;;5064241;28;20324;-71
2021/11/24 03:50:36;;;;;;;1.67;1.35;;;12.30;65.30;;;;;;5064297;28;20096;-70
2021/11/24 03:53:02;;;;;;;2.08;1.30;;;12.30;65.30;;;;;;5064059;28;20031;-71
2021/11/24 03:55:28;;;;;;;2.05;1.45;;;12.30;65.30;;;;;;5064138;28;20358;-71
2021/11/24 03:57:54;;;;;;;1.83;1.50;;;12.30;65.30;;;;;;5062859;28;20040;-72
2021/11/24 04:00:23;;;;;;;1.88;1.40;;;12.30;65.30;;;;;;5064026;28;20067;-72
2021/11/24 04:02:50;;;;;;;;;;;12.30;65.30;;;;;;5064454;28;20208;-72
2021/11/24 04:05:16;;;;;;;1.52;1.27;;;12.30;65.30;;;;;;5064039;28;20201;-71
2021/11/24 04:07:42;;;;;;;1.65;1.50;;;12.20;65.30;;;;;;5063886;28;20025;-71
2021/11/24 04:10:10;;;;;;;1.35;1.20;;;12.20;65.30;;;;;;5063926;28;20057;-72
2021/11/24 04:12:37;;;;;;;2.00;1.50;;;12.30;65.30;;;;;;5063605;28;20420;-71
2021/11/24 04:15:06;;;;;;;1.50;1.30;;;12.20;65.30;;;;;;5063760;28;20048;-72
2021/11/24 04:17:32;;;;;;;1.95;1.52;;;12.20;65.20;;;;;;5063708;28;20076;-71
2021/11/24 04:19:58;;;;;;;1.92;1.30;;;12.20;65.30;;;;;;5062468;28;20063;-71
2021/11/24 04:22:25;;;;;;;3.75;1.75;;;12.20;65.30;;;;;;5063630;28;20084;-71
2021/11/24 04:24:51;;;;;;;1.50;1.25;;;12.20;65.20;;;;;;5063565;28;20021;-70
2021/11/24 04:27:18;;;;;;;1.30;1.05;;;12.20;65.30;;;;;;5063559;28;20013;-71
2021/11/24 04:29:44;;;;;;;1.50;1.20;;;12.20;65.30;;;;;;5062268;28;20100;-72
2021/11/24 04:32:10;;;;;;;1.50;1.40;;;12.20;65.40;;;;;;5062301;28;20033;-71
2021/11/24 04:34:36;;;;;;;1.63;1.52;;;12.20;65.40;;;;;;5063444;28;20248;-71
2021/11/24 04:37:02;;;;;;;2.60;1.63;;;12.20;66.00;;;;;;5063330;28;20025;-71
2021/11/24 04:39:27;;;;;;;2.45;1.60;;;12.20;65.40;;;;;;5063387;28;20028;-71
2021/11/24 04:41:53;;;;;;;1.67;1.58;;;12.20;65.40;;;;;;5062072;28;20051;-70
2021/11/24 04:44:19;;;;;;;2.15;1.73;;;12.20;65.30;;;;;;5062286;28;20013;-71
2021/11/24 04:46:45;;;;;;;1.85;1.50;;;12.20;65.30;;;;;;5063190;28;20021;-71
2021/11/24 04:49:10;;;;;;;1.73;1.60;;;12.20;65.30;;;;;;5063142;28;20198;-71
2021/11/24 04:51:37;;;;;;;2.72;2.05;;;12.20;65.40;;;;;;5063102;28;20021;-71
2021/11/24 04:54:03;;;;;;;1.90;1.45;;;12.20;65.40;;;;;;5062936;28;20052;-70
2021/11/24 04:56:28;;;;;;;1.50;1.35;;;12.20;65.40;;;;;;5063015;28;20075;-70
2021/11/24 04:58:56;;;;;;;1.80;1.70;;;12.20;65.40;;;;;;5062959;28;20058;-71
2021/11/24 05:01:23;;;;;;;1.67;1.57;;;12.10;65.30;;;;;;5062863;28;20054;-71
2021/11/24 05:03:50;;;;;;;1.98;1.40;;;12.20;65.40;;;;;;5062917;28;20230;-70
2021/11/24 05:06:17;;;;;;;1.52;1.40;;;12.10;65.40;;;;;;5062811;28;20333;-72
2021/11/24 05:08:43;;;;;;;2.08;1.27;;;12.10;65.50;;;;;;5061515;28;20078;-71
2021/11/24 05:11:09;;;;;;;1.70;1.60;;;12.10;65.40;;;;;;5062574;28;20286;-72
2021/11/24 05:13:37;;;;;;;1.77;1.60;;;12.10;65.40;;;;;;5062610;28;20033;-71
2021/11/24 05:16:05;;;;;;;2.08;1.60;;;12.10;65.50;;;;;;5062623;28;20044;-72
2021/11/24 05:18:37;;;;;;;1.58;1.25;;;12.10;65.50;;;;;;5062588;28;20028;-71
2021/11/24 05:21:07;;;;;;;1.55;1.33;;;12.10;65.50;;;;;;5062575;28;20024;-71
2021/11/24 05:23:37;;;;;;;1.85;1.63;;;12.10;65.40;;;;;;5061359;28;20260;-71
2021/11/24 05:26:05;;;;;;;3.70;1.95;;;12.10;65.40;;;;;;5062550;28;20020;-71
2021/11/24 05:28:31;;;;;;;1.88;1.65;;;12.10;65.40;;;;;;5061261;28;20029;-71
2021/11/24 05:30:58;;;;;;;2.08;1.55;;;12.10;65.40;;;;;;5062400;28;20021;-71
2021/11/24 05:33:23;;;;;;;1.48;1.35;;;12.10;65.40;;;;;;5062273;28;20032;-70
2021/11/24 05:35:49;;;;;;;2.20;1.52;;;12.10;65.40;;;;;;5062313;28;20080;-71
2021/11/24 05:38:15;;;;;;;1.92;1.48;;;12.10;65.40;;;;;;5062263;28;20031;-71
2021/11/24 05:40:41;;;;;;;1.67;1.58;;;12.10;65.50;;;;;;5062227;28;20016;-71
2021/11/24 05:43:07;;;;;;;2.13;1.58;;;12.00;65.40;;;;;;5062206;28;20021;-71
2021/11/24 05:45:40;;;;;;;1.30;1.20;;;12.00;65.50;;;;;;5062172;28;20021;-71
2021/11/24 05:48:09;;;;;;;1.67;1.55;;;12.00;65.50;;;;;;5062143;28;20325;-71
2021/11/24 05:50:36;;;;;;;1.52;1.42;;;12.00;65.40;;;;;;5062082;28;20507;-71
2021/11/24 05:53:02;;;;;;;2.55;1.60;;;12.10;65.40;;;;;;5061971;28;20063;-71
2021/11/24 05:55:28;;;;;;;1.77;1.67;;;12.10;65.50;;;;;;5061837;28;20302;-71
2021/11/24 05:57:54;;;;;;;1.83;1.48;;;12.00;65.40;;;;;;5061983;28;20059;-71
2021/11/24 06:00:20;;;;;;;1.80;1.40;;;12.00;65.50;;;;;;5061973;28;20037;-71
2021/11/24 06:02:46;;;;;;;1.52;1.30;;;12.00;65.50;;;;;;5061912;28;20088;-72
2021/11/24 06:05:12;;;;;;;1.75;1.60;;;12.00;65.50;;;;;;5060678;28;20017;-71
2021/11/24 06:07:39;;;;;;;1.50;1.38;;;12.00;65.40;;;;;;5062316;28;20264;-70
2021/11/24 06:10:07;;;;;;;1.80;1.70;;;12.00;65.50;;;;;;5060676;28;20285;-71
2021/11/24 06:12:34;;;;;;;1.80;1.67;;;12.00;65.50;;;;;;5060423;28;20048;-71
2021/11/24 06:15:00;;;;;;;2.28;1.50;;;12.00;65.50;;;;;;5061805;28;20123;-71
2021/11/24 06:17:26;;;;;;;2.55;1.52;;;12.00;65.50;;;;;;5061800;28;20063;-71
2021/11/24 06:19:52;;;;;;;1.55;1.45;;;12.00;65.50;;;;;;5061753;28;20235;-71
2021/11/24 06:22:18;;;;;;;1.85;1.40;;;12.00;65.50;;;;;;5061736;28;20029;-71
2021/11/24 06:24:43;;;;;;;1.95;1.58;;;12.00;65.50;;;;;;5061752;28;20343;-71
2021/11/24 06:27:09;;;;;;;1.50;1.38;;;12.00;65.50;;;;;;5061735;28;20020;-71
2021/11/24 06:29:35;;;;;;;2.55;1.73;;;12.00;65.50;;;;;;5061752;28;20032;-71
2021/11/24 06:32:01;;;;;;;1.60;1.40;;;12.00;65.50;;;;;;5061562;28;20025;-71
2021/11/24 06:34:26;;;;;;;1.65;1.40;;;12.00;65.40;;;;;;5061666;28;20024;-71
2021/11/24 06:36:53;;;;;;;1.73;1.58;;;12.00;65.50;;;;;;5060409;28;20024;-71
2021/11/24 06:39:23;;;;;;;1.85;1.48;;;12.00;65.50;;;;;;5061605;28;20013;-71
2021/11/24 06:41:49;;;;;;;1.88;1.50;;;12.00;65.50;;;;;;5061588;28;20017;-71
2021/11/24 06:44:15;;;;;;;1.48;1.23;;;12.00;65.40;;;;;;5060356;28;20045;-71
2021/11/24 06:46:41;;;;;;;3.55;1.30;;;12.00;65.40;;;;;;5061528;28;20029;-71
2021/11/24 06:49:07;;;;;;;1.67;1.45;;;12.00;65.30;;;;;;5060381;28;20041;-70
2021/11/24 06:51:34;;;;;;;1.95;1.63;;;12.00;65.40;;;;;;5061479;28;20060;-70
2021/11/24 06:54:01;;;;;;;1.88;1.50;;;12.00;65.40;;;;;;5061375;28;20025;-71
2021/11/24 06:56:27;;;;;;;1.80;1.42;;;12.00;65.40;;;;;;5061462;28;20013;-71
2021/11/24 06:58:52;;;;;;;1.92;1.73;;;12.00;65.40;;;;;;5061367;28;20466;-71
2021/11/24 07:01:18;;;;;;;1.50;1.40;;;12.00;65.40;;;;;;5061391;28;20048;-70
2021/11/24 07:03:44;;;;;;;1.85;1.50;;;12.00;65.40;;;;;;5061377;28;20324;-71
2021/11/24 07:06:10;;;;;;;2.42;1.63;;;11.90;65.30;;;;;;5061336;28;20017;-70
2021/11/24 07:08:35;;;;;;;1.90;1.60;;;12.00;65.40;;;;;;5064331;28;20268;-71
2021/11/24 07:11:01;;;;;;;2.15;1.70;;;11.90;65.40;;;;;;5063593;28;20072;-71
2021/11/24 07:13:27;;;;;;;2.05;1.50;;;12.00;65.40;;;;;;5064928;28;20028;-71
2021/11/24 07:15:52;;;;;;;2.20;1.40;;;12.00;65.40;;;;;;5064936;28;20098;-71
2021/11/24 07:18:18;;;;;;;1.52;1.42;;;12.00;65.40;;;;;;5064951;28;20357;-71
2021/11/24 07:20:44;;;;;;;2.15;1.45;;;12.00;65.30;;;;;;5064824;28;20076;-70
2021/11/24 07:23:10;;;;;;;1.85;1.60;;;12.00;65.30;;;;;;5064796;28;20222;-71
2021/11/24 07:25:36;;;;;;;1.75;1.58;;;11.90;65.40;;;;;;5064784;28;20033;-71
2021/11/24 07:28:02;;;;;;;1.70;1.33;;;12.00;65.40;;;;;;5064693;28;20321;-71
2021/11/24 07:30:28;;;;;;;1.73;1.25;;;12.00;66.00;;;;;;5064675;28;20103;-71
2021/11/24 07:32:54;;;;;;;1.70;1.50;;;12.00;65.40;;;;;;5064522;28;20023;-71
2021/11/24 07:35:20;;;;;;;2.20;1.45;;;12.00;65.30;;;;;;5064575;28;20059;-71
2021/11/24 07:37:46;;;;;;;2.03;1.40;;;12.00;65.30;;;;;;5063314;28;20035;-71
2021/11/24 07:40:12;;;;;;;1.80;1.60;;;12.00;65.20;;;;;;5064527;28;20272;-70
2021/11/24 07:42:38;;;;;;;1.52;1.30;;;12.10;65.10;;;;;;5064476;28;20205;-72
2021/11/24 07:45:05;;;;;;;2.42;1.55;;;12.10;65.00;;;;;;5063247;28;20021;-71
2021/11/24 07:47:31;;;;;;;1.90;1.70;;;12.20;64.90;;;;;;5063107;28;20020;-71
2021/11/24 07:49:57;;;;;;;1.98;1.17;;;12.20;64.70;;;;;;5064326;28;20051;-71
2021/11/24 07:52:23;;;;;;;1.73;1.50;;;12.20;64.60;;;;;;5062944;28;20033;-71
2021/11/24 07:54:49;;;;;;;1.67;1.58;;;12.30;64.50;;;;;;5063065;28;20017;-71
2021/11/24 07:57:18;;;;;;;2.08;1.40;;;12.30;64.50;;;;;;5064165;28;20025;-71
2021/11/24 07:59:43;;;;;;;1.75;1.20;;;12.30;64.40;;;;;;5062887;28;20032;-72
2021/11/24 08:02:09;;;;;;;1.70;1.60;;;12.40;64.30;;;;;;5064102;28;20041;-71
2021/11/24 08:04:35;;;;;;;1.63;1.30;;;12.30;64.20;;;;;;5062832;28;20049;-71
2021/11/24 08:07:03;;;;;;;1.58;1.48;;;12.40;64.10;;;;;;5064004;28;20070;-71
2021/11/24 08:09:30;;;;;;;1.38;1.27;;;12.40;64.00;;;;;;5062749;28;20017;-71
2021/11/24 08:11:58;;;;;;;1.80;1.58;;;12.40;64.00;;;;;;5062516;28;20120;-71
2021/11/24 08:14:24;;;;;;;1.83;1.30;;;12.40;63.90;;;;;;5062540;28;20255;-71
2021/11/24 08:16:50;;;;;;;1.77;1.67;;;12.40;63.90;;;;;;5063841;28;20056;-71
2021/11/24 08:19:16;;;;;;;2.15;1.67;;;12.50;64.00;;;;;;5063738;28;20076;-70
2021/11/24 08:21:41;;;;;;;1.67;1.58;;;12.50;64.00;;;;;;5063723;28;20316;-71
2021/11/24 08:24:07;;;;;;;1.52;1.23;;;12.50;64.00;;;;;;5063717;28;20354;-72
2021/11/24 08:26:33;;;;;;;2.00;1.40;;;12.50;63.90;;;;;;5063629;28;20032;-72
2021/11/24 08:28:59;;;;;;;2.22;1.67;;;12.50;64.00;;;;;;5063596;28;20212;-71
2021/11/24 08:31:25;;;;;;;3.33;1.50;;;12.50;63.90;;;;;;5063536;28;20024;-72
2021/11/24 08:33:51;;;;;;;1.50;1.40;;;12.50;63.80;;;;;;5062239;28;20029;-71
2021/11/24 08:36:16;;;;;;;2.63;1.40;;;12.60;63.80;;;;;;5063463;28;20040;-71
2021/11/24 08:38:43;;;;;;;1.90;1.60;;;12.60;63.70;;;;;;5063337;28;20370;-71
2021/11/24 08:41:11;;;;;;;1.60;1.40;;;12.60;63.60;;;;;;5063347;28;20100;-71
2021/11/24 08:43:38;;;;;;;2.13;1.80;;;12.70;63.60;;;;;;5063401;28;20036;-71
2021/11/24 08:46:04;;;;;;;1.98;1.63;;;12.70;63.50;;;;;;5063225;28;20017;-71
2021/11/24 08:48:31;;;;;;;1.58;1.42;;;12.70;63.30;;;;;;5063249;28;20059;-72
2021/11/24 08:50:57;;;;;;;1.73;1.60;;;12.70;63.40;;;;;;5063191;28;20023;-71
2021/11/24 08:53:24;;;;;;;2.33;1.50;;;12.80;63.40;;;;;;5062596;28;20040;-71
2021/11/24 08:55:50;;;;;;;2.08;1.60;;;12.80;63.20;;;;;;5061888;28;20012;-71
2021/11/24 08:58:16;;;;;;;2.50;1.77;;;12.80;63.00;;;;;;5063022;28;20020;-73
2021/11/24 09:00:42;;;;;;;1.95;1.45;;;12.90;63.00;;;;;;5062961;28;20043;-72
2021/11/24 09:03:10;;;;;;;1.90;1.70;;;12.90;63.00;;;;;;5062962;28;20028;-71
2021/11/24 09:05:36;;;;;;;1.60;1.50;;;12.90;63.10;;;;;;5062938;28;20088;-71
2021/11/24 09:08:03;;;;;;;6.18;1.90;;;12.90;63.10;;;;;;5061591;28;20024;-72
2021/11/24 09:10:31;;;;;;;1.88;1.65;;;12.90;63.20;;;;;;5062577;28;20036;-73
2021/11/24 09:13:00;;;;;;;1.98;1.48;;;12.90;63.10;;;;;;5062697;28;20092;-72
2021/11/24 09:15:27;;;;;;;2.33;1.70;;;12.90;62.80;;;;;;5061504;28;20049;-71
2021/11/24 09:17:54;;;;;;;1.50;1.40;;;12.90;62.90;;;;;;5062609;28;20328;-71
2021/11/24 09:20:20;;;;;;;1.70;1.50;;;13.00;62.90;;;;;;5062628;28;20017;-71
2021/11/24 09:22:48;;;;;;;1.52;1.25;;;13.00;63.00;;;;;;5062563;28;20208;-71
2021/11/24 09:25:19;;;;;;;1.95;1.25;;;13.00;62.80;;;;;;5062509;28;20308;-71
2021/11/24 09:27:59;;;;;;;2.67;1.60;;;13.00;62.60;;;;;;5061299;28;20052;-71
2021/11/24 09:30:27;;;;;;;2.00;1.58;;;13.10;62.10;;;;;;5061988;28;20033;-71
2021/11/24 09:32:53;;;;;;;1.95;1.63;;;13.20;62.40;;;;;;5062359;28;20036;-71
2021/11/24 09:35:20;;;;;;;2.17;1.52;;;13.30;61.60;;;;;;5062372;28;20021;-72
2021/11/24 09:37:46;;;;;;;2.45;1.80;;;13.30;61.20;;;;;;5062281;28;20083;-71
2021/11/24 09:40:13;;;;;;;1.67;1.50;;;13.30;60.70;;;;;;5062265;28;20013;-72
2021/11/24 09:42:45;;;;;;;1.48;1.30;;;13.30;60.90;;;;;;5062238;28;20021;-72
2021/11/24 09:45:13;;;;;;;1.60;1.30;;;13.40;61.10;;;;;;5062249;28;20024;-72
2021/11/24 09:47:45;;;;;;;1.80;1.30;;;13.30;61.10;;;;;;5062220;28;20021;-71
2021/11/24 09:50:11;;;;;;;1.67;1.58;;;13.30;61.10;;;;;;5062174;28;20035;-71
2021/11/24 09:52:42;;;;;;;1.90;1.67;;;13.30;61.00;;;;;;5060825;28;20102;-72
2021/11/24 09:55:08;;;;;;;1.58;1.38;;;13.30;61.10;;;;;;5062142;28;20070;-70
2021/11/24 09:57:34;;;;;;;1.52;1.33;;;13.40;61.00;;;;;;5062023;28;20013;-72
2021/11/24 10:00:00;;;;;;;1.58;1.48;;;13.40;61.20;;;;;;5062013;28;20021;-72
2021/11/24 10:02:26;;;;;;;1.50;1.30;;;13.40;61.20;;;;;;5061956;28;20020;-71
2021/11/24 10:04:51;;;;;;;1.70;1.60;;;13.40;61.20;;;;;;5061928;28;20036;-72
2021/11/24 10:07:19;;;;;;;1.80;1.27;;;13.40;61.10;;;;;;5062003;28;20069;-71
2021/11/24 10:09:46;;;;;;;2.03;1.42;;;13.40;61.10;;;;;;5061924;28;20013;-72
2021/11/24 10:12:12;;;;;;;2.00;1.73;;;13.50;61.20;;;;;;5061653;28;20059;-72
2021/11/24 10:14:39;;;;;;;3.53;1.90;;;13.50;61.20;;;;;;5061913;28;20033;-71
2021/11/24 10:17:11;;;;;;;2.20;1.60;;;13.50;61.20;;;;;;5061867;28;20009;-71
2021/11/24 10:19:37;;;;;;;1.70;1.60;;;13.50;61.20;;;;;;5061849;28;20079;-72
2021/11/24 10:22:14;;;;;;;2.10;1.70;;;13.50;61.30;;;;;;5061789;28;20024;-71
2021/11/24 10:24:43;;;;;;;2.22;1.70;;;13.50;61.30;;;;;;5061813;28;20017;-70
2021/11/24 10:27:11;;;;;;;2.75;1.70;;;13.50;62.00;;;;;;5061760;28;20017;-71
2021/11/24 10:29:40;;;;;;;;;;;13.50;61.40;;;;;;5062219;28;20084;-70
2021/11/24 10:32:11;;;;;;;1.88;1.63;;;13.50;61.50;;;;;;5061751;28;19947;-71
2021/11/24 10:34:39;;;;;;;2.67;1.80;;;13.50;61.40;;;;;;5061650;28;20021;-71
2021/11/24 10:37:15;;;;;;;1.58;1.42;;;13.50;61.30;;;;;;5061681;28;20024;-71
2021/11/24 10:39:51;;;;;;;2.28;1.40;;;13.50;61.30;;;;;;5061617;28;20021;-71
2021/11/24 10:42:17;;;;;;;1.90;1.55;;;13.60;61.30;;;;;;5062643;28;20020;-71
2021/11/24 10:44:45;;;;;;;2.08;1.33;;;13.50;61.30;;;;;;5064315;28;20025;-71
2021/11/24 10:47:13;;;;;;;1.73;1.30;;;13.60;61.20;;;;;;5064335;28;20031;-71
2021/11/24 10:49:45;;;;;;;1.63;1.43;;;13.60;61.20;;;;;;5065529;28;20025;-71
2021/11/24 10:52:20;;;;;;;1.95;1.60;;;13.50;61.20;;;;;;5064218;28;20020;-71
2021/11/24 10:55:21;;;;;;;2.58;1.75;;;13.60;61.40;;;;;;5065404;28;20029;-72
2021/11/24 10:57:59;;;;;;;1.20;1.10;;;13.60;61.30;;;;;;5065355;28;20024;-72
2021/11/24 11:00:39;;;;;;;1.80;1.63;;;13.60;61.20;;;;;;5065258;28;20036;-70
2021/11/24 11:03:06;;;;;;;1.45;1.27;;;13.60;61.10;;;;;;5064009;28;20021;-71
2021/11/24 11:05:33;;;;;;;2.05;1.45;;;13.60;61.20;;;;;;5065137;28;20135;-71
2021/11/24 11:08:07;;;;;;;1.70;1.58;;;13.70;61.30;;;;;;5063922;28;20025;-72
2021/11/24 11:10:37;;;;;;;2.03;1.42;;;13.70;61.30;;;;;;5063671;28;20080;-72
2021/11/24 11:13:03;;;;;;;2.75;1.88;;;13.60;61.20;;;;;;5064969;28;20037;-72
2021/11/24 11:15:38;;;;;;;1.48;1.17;;;13.70;61.20;;;;;;5064981;28;20043;-72
2021/11/24 11:18:24;;;;;;;1.75;1.58;;;13.60;61.20;;;;;;5064962;28;20301;-71
2021/11/24 11:20:50;;;;;;;1.50;1.40;;;13.70;61.20;;;;;;5064938;28;20040;-71
2021/11/24 11:23:19;;;;;;;1.58;1.40;;;13.70;61.20;;;;;;5064876;28;20036;-71
2021/11/24 11:25:48;;;;;;;1.25;1.05;;;13.70;61.20;;;;;;5064797;28;20025;-70
2021/11/24 11:28:15;;;;;;;2.30;1.50;;;13.70;61.20;;;;;;5064721;28;20039;-71
2021/11/24 11:30:43;;;;;;;2.65;1.50;;;13.70;61.10;;;;;;5064758;28;20070;-71
2021/11/24 11:33:13;;;;;;;1.67;1.38;;;13.70;61.10;;;;;;5064636;28;20392;-71
2021/11/24 11:35:40;;;;;;;2.00;1.65;;;13.70;61.10;;;;;;5064624;28;20025;-72
2021/11/24 11:38:06;;;;;;;1.60;1.30;;;13.70;61.10;;;;;;5064561;28;20021;-72
2021/11/24 11:40:36;;;;;;;1.83;1.58;;;13.70;61.30;;;;;;5064545;28;20021;-71
2021/11/24 11:43:03;;;;;;;1.42;1.30;;;13.70;61.30;;;;;;5064481;28;20054;-72
2021/11/24 11:45:32;;;;;;;2.60;1.60;;;13.80;61.40;;;;;;5064466;28;20071;-72
2021/11/24 11:48:01;;;;;;;2.10;1.67;;;13.70;61.30;;;;;;5063214;28;20212;-71
2021/11/24 11:50:45;;;;;;;2.47;1.63;;;13.80;61.30;;;;;;5064332;28;20025;-71
2021/11/24 11:53:20;;;;;;;2.10;1.40;;;13.80;61.20;;;;;;5063784;28;20017;-72
2021/11/24 11:56:07;;;;;;;1.50;1.40;;;13.70;61.20;;;;;;5062988;28;20063;-71
2021/11/24 11:58:34;;;;;;;1.40;1.20;;;13.80;61.30;;;;;;5050359;28;20029;-71
2021/11/24 12:01:33;;;;;;;2.05;1.30;;;13.80;61.30;;;;;;5064139;28;20025;-72
2021/11/24 12:04:07;;;;;;;1.55;1.33;;;13.80;61.20;;;;;;5050233;28;20033;-71
2021/11/24 12:06:43;;;;;;;2.08;1.67;;;13.80;61.10;;;;;;5063983;28;20024;-71
2021/11/24 12:09:15;;;;;;;2.35;1.77;;;13.80;61.20;;;;;;5064005;28;20021;-71
2021/11/24 12:11:59;;;;;;;2.33;1.75;;;13.80;61.20;;;;;;5063751;28;20055;-71
2021/11/24 12:14:46;;;;;;;1.33;1.08;;;13.80;61.20;;;;;;5063801;28;20216;-71
2021/11/24 12:19:57;;;;;;;2.58;1.58;;;13.80;61.60;;;;;;5064094;28;20031;-72
2021/11/24 12:25:26;;;;;;;1.80;1.50;;;13.80;61.60;;;;;;5063755;28;20085;-71
2021/11/24 12:27:58;;;;;;;2.13;1.20;;;13.80;61.50;;;;;;5063661;28;20029;-72
2021/11/24 12:31:09;;;;;;;1.80;1.52;;;13.80;61.30;;;;;;5063606;28;20017;-71
2021/11/24 12:33:38;;;;;;;1.75;1.20;;;13.80;61.60;;;;;;5061294;28;20032;-71
2021/11/24 12:36:04;;;;;;;2.05;1.40;;;13.80;61.60;;;;;;5062287;28;20021;-71
2021/11/24 12:38:37;;;;;;;2.53;1.50;;;13.80;61.60;;;;;;5063421;28;20178;-71
2021/11/24 12:41:28;;;;;;;2.00;1.52;;;13.80;61.60;;;;;;5063369;28;20029;-71
2021/11/24 12:43:59;;;;;;;2.08;1.20;;;13.80;61.50;;;;;;5062884;28;20032;-71
2021/11/24 12:46:30;;;;;;;2.15;1.70;;;13.80;61.50;;;;;;5062151;28;20057;-72
2021/11/24 12:49:02;;;;;;;2.47;1.63;;;13.80;61.40;;;;;;5063260;28;20462;-71
2021/11/24 12:51:34;;;;;;;1.52;1.42;;;13.90;61.50;;;;;;5063213;28;20028;-71
2021/11/24 12:54:00;;;;;;;1.50;1.38;;;13.90;61.60;;;;;;5063093;28;20144;-72
2021/11/24 12:56:37;;;;;;;1.30;1.20;;;13.90;61.80;;;;;;5061870;28;20324;-72